sensor_id;sensor_type;location;lat;lon;timestamp;pressure;altitude;pressure_sealevel;temperature;humidity
76853;BME280;65825;52.232;10.566;2022-12-18T00:00:53;102150.44;;;-7.29;84.10
76853;BME280;65825;52.232;10.566;2022-12-18T00:03:19;102146.28;;;-7.27;84.25
76853;BME280;65825;52.232;10.566;2022-12-18T00:05:51;102145.41;;;-7.28;84.35
76853;BME280;65825;52.232;10.566;2022-12-18T00:08:16;102155.78;;;-7.39;84.14
76853;BME280;65825;52.232;10.566;2022-12-18T00:10:42;102153.81;;;-7.30;84.40
76853;BME280;65825;52.232;10.566;2022-12-18T00:13:08;102165.63;;;-7.32;84.20
76853;BME280;65825;52.232;10.566;2022-12-18T00:15:34;102168.50;;;-7.28;83.72
76853;BME280;65825;52.232;10.566;2022-12-18T00:18:00;102169.69;;;-7.36;83.21
76853;BME280;65825;52.232;10.566;2022-12-18T00:20:25;102161.13;;;-7.49;84.36
76853;BME280;65825;52.232;10.566;2022-12-18T00:22:54;102164.66;;;-7.47;83.54
76853;BME280;65825;52.232;10.566;2022-12-18T00:25:19;102178.66;;;-7.42;83.71
76853;BME280;65825;52.232;10.566;2022-12-18T00:27:45;102180.16;;;-7.46;83.62
76853;BME280;65825;52.232;10.566;2022-12-18T00:30:10;102170.69;;;-7.47;83.10
76853;BME280;65825;52.232;10.566;2022-12-18T00:32:36;102166.53;;;-7.32;83.10
76853;BME280;65825;52.232;10.566;2022-12-18T00:35:02;102170.47;;;-7.37;82.60
76853;BME280;65825;52.232;10.566;2022-12-18T00:37:27;102166.47;;;-7.46;83.60
76853;BME280;65825;52.232;10.566;2022-12-18T00:39:52;102164.16;;;-7.42;83.70
76853;BME280;65825;52.232;10.566;2022-12-18T00:42:18;102181.53;;;-7.51;83.85
76853;BME280;65825;52.232;10.566;2022-12-18T00:45:02;102177.78;;;-7.43;83.99
76853;BME280;65825;52.232;10.566;2022-12-18T00:47:28;102172.16;;;-7.50;83.83
76853;BME280;65825;52.232;10.566;2022-12-18T00:49:53;102183.22;;;-7.51;84.30
76853;BME280;65825;52.232;10.566;2022-12-18T00:52:18;102185.59;;;-7.54;84.65
76853;BME280;65825;52.232;10.566;2022-12-18T00:54:43;102185.78;;;-7.51;84.26
76853;BME280;65825;52.232;10.566;2022-12-18T00:57:09;102185.88;;;-7.63;84.65
76853;BME280;65825;52.232;10.566;2022-12-18T00:59:34;102193.09;;;-7.57;83.72
76853;BME280;65825;52.232;10.566;2022-12-18T01:01:59;102203.84;;;-7.63;83.51
76853;BME280;65825;52.232;10.566;2022-12-18T01:04:24;102203.41;;;-7.56;83.63
76853;BME280;65825;52.232;10.566;2022-12-18T01:06:50;102200.28;;;-7.65;83.36
76853;BME280;65825;52.232;10.566;2022-12-18T01:09:15;102202.75;;;-7.66;83.51
76853;BME280;65825;52.232;10.566;2022-12-18T01:11:40;102198.97;;;-7.84;83.36
76853;BME280;65825;52.232;10.566;2022-12-18T01:14:06;102204.41;;;-7.93;83.88
76853;BME280;65825;52.232;10.566;2022-12-18T01:16:31;102206.97;;;-8.06;84.33
76853;BME280;65825;52.232;10.566;2022-12-18T01:18:56;102203.59;;;-8.31;85.08
76853;BME280;65825;52.232;10.566;2022-12-18T01:21:23;102205.25;;;-8.31;85.42
76853;BME280;65825;52.232;10.566;2022-12-18T01:23:56;102202.78;;;-8.30;84.97
76853;BME280;65825;52.232;10.566;2022-12-18T01:26:22;102208.44;;;-8.22;84.25
76853;BME280;65825;52.232;10.566;2022-12-18T01:28:48;102212.66;;;-8.23;84.44
76853;BME280;65825;52.232;10.566;2022-12-18T01:33:42;102217.78;;;-8.23;84.37
76853;BME280;65825;52.232;10.566;2022-12-18T01:36:14;102216.56;;;-8.28;84.21
76853;BME280;65825;52.232;10.566;2022-12-18T01:38:40;102219.81;;;-8.30;84.67
76853;BME280;65825;52.232;10.566;2022-12-18T01:41:05;102214.63;;;-8.32;85.48
76853;BME280;65825;52.232;10.566;2022-12-18T01:46:15;102215.78;;;-8.14;84.67
76853;BME280;65825;52.232;10.566;2022-12-18T01:48:40;102209.41;;;-8.20;84.67
76853;BME280;65825;52.232;10.566;2022-12-18T01:51:07;102218.75;;;-8.08;84.58
76853;BME280;65825;52.232;10.566;2022-12-18T01:53:34;102223.19;;;-8.18;84.76
76853;BME280;65825;52.232;10.566;2022-12-18T01:56:00;102212.09;;;-8.06;83.87
76853;BME280;65825;52.232;10.566;2022-12-18T01:59:00;102211.00;;;-7.96;83.61
76853;BME280;65825;52.232;10.566;2022-12-18T02:01:28;102222.44;;;-7.91;83.37
76853;BME280;65825;52.232;10.566;2022-12-18T02:03:54;102226.38;;;-7.96;83.20
76853;BME280;65825;52.232;10.566;2022-12-18T02:09:09;102214.53;;;-8.07;83.07
76853;BME280;65825;52.232;10.566;2022-12-18T02:11:53;102219.66;;;-7.94;82.82
76853;BME280;65825;52.232;10.566;2022-12-18T02:14:29;102208.13;;;-8.27;83.82
76853;BME280;65825;52.232;10.566;2022-12-18T02:17:05;102212.25;;;-8.16;83.56
76853;BME280;65825;52.232;10.566;2022-12-18T02:22:52;102207.91;;;-8.30;83.89
76853;BME280;65825;52.232;10.566;2022-12-18T02:28:19;102224.78;;;-8.20;83.41
76853;BME280;65825;52.232;10.566;2022-12-18T02:30:47;102222.59;;;-8.27;83.59
76853;BME280;65825;52.232;10.566;2022-12-18T02:33:15;102226.94;;;-8.26;84.13
76853;BME280;65825;52.232;10.566;2022-12-18T02:35:41;102214.00;;;-8.28;83.95
76853;BME280;65825;52.232;10.566;2022-12-18T02:38:09;102219.56;;;-8.09;82.88
76853;BME280;65825;52.232;10.566;2022-12-18T02:40:35;102214.22;;;-8.25;83.57
76853;BME280;65825;52.232;10.566;2022-12-18T02:43:07;102216.56;;;-8.28;84.14
76853;BME280;65825;52.232;10.566;2022-12-18T02:45:32;102219.94;;;-8.29;84.49
76853;BME280;65825;52.232;10.566;2022-12-18T02:47:58;102218.66;;;-8.22;84.02
76853;BME280;65825;52.232;10.566;2022-12-18T02:50:32;102218.34;;;-8.14;83.92
76853;BME280;65825;52.232;10.566;2022-12-18T02:58:44;102215.63;;;-8.17;84.11
76853;BME280;65825;52.232;10.566;2022-12-18T03:01:45;102220.72;;;-8.17;83.87
76853;BME280;65825;52.232;10.566;2022-12-18T03:04:22;102220.53;;;-8.20;83.51
76853;BME280;65825;52.232;10.566;2022-12-18T03:06:51;102223.91;;;-8.21;83.82
76853;BME280;65825;52.232;10.566;2022-12-18T03:09:21;102212.47;;;-8.26;83.64
76853;BME280;65825;52.232;10.566;2022-12-18T03:11:55;102210.38;;;-8.18;83.81
76853;BME280;65825;52.232;10.566;2022-12-18T03:14:41;102211.09;;;-8.21;83.72
76853;BME280;65825;52.232;10.566;2022-12-18T03:17:11;102211.09;;;-8.21;83.70
76853;BME280;65825;52.232;10.566;2022-12-18T03:19:39;102213.25;;;-8.27;83.50
76853;BME280;65825;52.232;10.566;2022-12-18T03:22:07;102215.72;;;-8.28;83.94
76853;BME280;65825;52.232;10.566;2022-12-18T03:24:34;102220.31;;;-8.23;83.61
76853;BME280;65825;52.232;10.566;2022-12-18T03:27:06;102214.59;;;-8.19;83.45
76853;BME280;65825;52.232;10.566;2022-12-18T03:29:38;102217.00;;;-8.22;84.08
76853;BME280;65825;52.232;10.566;2022-12-18T03:32:09;102212.94;;;-8.18;83.23
76853;BME280;65825;52.232;10.566;2022-12-18T03:34:38;102211.66;;;-8.12;83.16
76853;BME280;65825;52.232;10.566;2022-12-18T03:37:05;102212.88;;;-8.20;83.39
76853;BME280;65825;52.232;10.566;2022-12-18T03:39:31;102209.41;;;-8.20;83.41
76853;BME280;65825;52.232;10.566;2022-12-18T03:47:07;102200.25;;;-8.17;82.50
76853;BME280;65825;52.232;10.566;2022-12-18T03:49:38;102203.09;;;-8.12;82.91
76853;BME280;65825;52.232;10.566;2022-12-18T03:54:57;102202.88;;;-8.15;82.99
76853;BME280;65825;52.232;10.566;2022-12-18T03:57:26;102208.59;;;-8.19;82.87
76853;BME280;65825;52.232;10.566;2022-12-18T04:00:01;102205.88;;;-8.22;82.61
76853;BME280;65825;52.232;10.566;2022-12-18T04:02:28;102212.75;;;-8.21;82.71
76853;BME280;65825;52.232;10.566;2022-12-18T04:04:58;102201.66;;;-8.22;82.72
76853;BME280;65825;52.232;10.566;2022-12-18T04:07:24;102204.78;;;-8.26;82.20
76853;BME280;65825;52.232;10.566;2022-12-18T04:09:52;102205.63;;;-8.38;82.74
76853;BME280;65825;52.232;10.566;2022-12-18T04:12:19;102203.19;;;-8.37;82.34
76853;BME280;65825;52.232;10.566;2022-12-18T04:14:44;102195.16;;;-8.41;82.43
76853;BME280;65825;52.232;10.566;2022-12-18T04:17:10;102195.06;;;-8.43;82.39
76853;BME280;65825;52.232;10.566;2022-12-18T04:19:35;102192.59;;;-8.41;82.75
76853;BME280;65825;52.232;10.566;2022-12-18T04:22:00;102194.19;;;-8.43;82.25
76853;BME280;65825;52.232;10.566;2022-12-18T04:24:25;102191.25;;;-8.36;82.67
76853;BME280;65825;52.232;10.566;2022-12-18T04:26:51;102195.50;;;-8.37;82.71
76853;BME280;65825;52.232;10.566;2022-12-18T04:29:16;102202.84;;;-8.41;83.17
76853;BME280;65825;52.232;10.566;2022-12-18T04:31:41;102209.06;;;-8.38;82.88
76853;BME280;65825;52.232;10.566;2022-12-18T04:34:07;102219.69;;;-8.45;82.30
76853;BME280;65825;52.232;10.566;2022-12-18T04:36:32;102214.94;;;-8.52;82.34
76853;BME280;65825;52.232;10.566;2022-12-18T04:38:58;102222.28;;;-8.56;83.07
76853;BME280;65825;52.232;10.566;2022-12-18T04:41:23;102215.50;;;-8.56;82.87
76853;BME280;65825;52.232;10.566;2022-12-18T04:43:48;102217.31;;;-8.66;83.44
76853;BME280;65825;52.232;10.566;2022-12-18T04:46:14;102222.38;;;-8.68;84.04
76853;BME280;65825;52.232;10.566;2022-12-18T04:48:39;102218.00;;;-8.69;83.83
76853;BME280;65825;52.232;10.566;2022-12-18T04:51:05;102213.41;;;-8.61;82.99
76853;BME280;65825;52.232;10.566;2022-12-18T04:53:31;102220.31;;;-8.60;82.52
76853;BME280;65825;52.232;10.566;2022-12-18T04:56:08;102222.44;;;-8.66;82.88
76853;BME280;65825;52.232;10.566;2022-12-18T04:58:34;102216.44;;;-8.67;82.83
76853;BME280;65825;52.232;10.566;2022-12-18T05:01:00;102222.44;;;-8.66;82.72
76853;BME280;65825;52.232;10.566;2022-12-18T05:03:25;102215.56;;;-8.67;83.28
76853;BME280;65825;52.232;10.566;2022-12-18T05:05:51;102214.00;;;-8.65;83.65
76853;BME280;65825;52.232;10.566;2022-12-18T05:08:19;102204.88;;;-8.49;82.70
76853;BME280;65825;52.232;10.566;2022-12-18T05:10:45;102199.38;;;-8.55;83.25
76853;BME280;65825;52.232;10.566;2022-12-18T05:13:10;102195.16;;;-8.54;82.74
76853;BME280;65825;52.232;10.566;2022-12-18T05:15:36;102189.53;;;-8.49;83.25
76853;BME280;65825;52.232;10.566;2022-12-18T05:18:02;102187.25;;;-8.57;82.88
76853;BME280;65825;52.232;10.566;2022-12-18T05:20:28;102188.84;;;-8.46;83.17
76853;BME280;65825;52.232;10.566;2022-12-18T05:22:54;102188.03;;;-8.58;82.66
76853;BME280;65825;52.232;10.566;2022-12-18T05:25:20;102198.72;;;-8.64;83.47
76853;BME280;65825;52.232;10.566;2022-12-18T05:27:45;102195.19;;;-8.66;83.14
76853;BME280;65825;52.232;10.566;2022-12-18T05:30:12;102198.72;;;-8.64;83.13
76853;BME280;65825;52.232;10.566;2022-12-18T05:32:38;102202.56;;;-8.70;83.79
76853;BME280;65825;52.232;10.566;2022-12-18T05:35:04;102201.28;;;-8.64;82.80
76853;BME280;65825;52.232;10.566;2022-12-18T05:37:32;102203.91;;;-8.51;83.70
76853;BME280;65825;52.232;10.566;2022-12-18T05:39:57;102205.03;;;-8.59;82.33
76853;BME280;65825;52.232;10.566;2022-12-18T05:42:23;102204.75;;;-8.63;82.82
76853;BME280;65825;52.232;10.566;2022-12-18T05:44:48;102203.16;;;-8.61;83.00
76853;BME280;65825;52.232;10.566;2022-12-18T05:47:13;102199.22;;;-8.69;82.94
76853;BME280;65825;52.232;10.566;2022-12-18T05:49:39;102203.84;;;-8.64;82.34
76853;BME280;65825;52.232;10.566;2022-12-18T05:52:04;102207.19;;;-8.65;82.18
76853;BME280;65825;52.232;10.566;2022-12-18T05:54:29;102212.13;;;-8.68;82.48
76853;BME280;65825;52.232;10.566;2022-12-18T05:56:56;102210.59;;;-8.77;82.90
76853;BME280;65825;52.232;10.566;2022-12-18T05:59:21;102222.41;;;-8.79;82.70
76853;BME280;65825;52.232;10.566;2022-12-18T06:01:46;102226.16;;;-8.74;82.67
76853;BME280;65825;52.232;10.566;2022-12-18T06:04:12;102230.38;;;-8.75;82.82
76853;BME280;65825;52.232;10.566;2022-12-18T06:06:37;102238.84;;;-8.76;83.32
76853;BME280;65825;52.232;10.566;2022-12-18T06:09:03;102244.75;;;-8.77;82.62
76853;BME280;65825;52.232;10.566;2022-12-18T06:11:34;102241.41;;;-8.76;82.95
76853;BME280;65825;52.232;10.566;2022-12-18T06:14:00;102243.16;;;-8.75;82.90
76853;BME280;65825;52.232;10.566;2022-12-18T06:16:26;102248.28;;;-8.75;83.25
76853;BME280;65825;52.232;10.566;2022-12-18T06:18:52;102255.88;;;-8.76;82.72
76853;BME280;65825;52.232;10.566;2022-12-18T06:21:17;102254.44;;;-8.84;82.81
76853;BME280;65825;52.232;10.566;2022-12-18T06:23:42;102259.25;;;-8.89;84.19
76853;BME280;65825;52.232;10.566;2022-12-18T06:26:13;102259.78;;;-8.81;83.05
76853;BME280;65825;52.232;10.566;2022-12-18T06:28:39;102260.00;;;-8.78;83.42
76853;BME280;65825;52.232;10.566;2022-12-18T06:31:05;102266.44;;;-8.72;82.73
76853;BME280;65825;52.232;10.566;2022-12-18T06:33:31;102271.97;;;-8.66;82.49
76853;BME280;65825;52.232;10.566;2022-12-18T06:36:01;102274.00;;;-8.85;82.63
76853;BME280;65825;52.232;10.566;2022-12-18T06:38:27;102273.13;;;-8.85;83.08
76853;BME280;65825;52.232;10.566;2022-12-18T06:40:52;102271.94;;;-9.02;83.17
76853;BME280;65825;52.232;10.566;2022-12-18T06:43:18;102274.50;;;-8.90;83.23
76853;BME280;65825;52.232;10.566;2022-12-18T06:45:43;102273.47;;;-8.92;83.60
76853;BME280;65825;52.232;10.566;2022-12-18T06:48:08;102270.88;;;-8.81;82.63
76853;BME280;65825;52.232;10.566;2022-12-18T06:50:33;102269.38;;;-8.90;82.76
76853;BME280;65825;52.232;10.566;2022-12-18T06:52:59;102271.13;;;-8.89;83.32
76853;BME280;65825;52.232;10.566;2022-12-18T06:55:24;102271.81;;;-8.92;83.10
76853;BME280;65825;52.232;10.566;2022-12-18T06:57:50;102268.28;;;-8.94;83.97
76853;BME280;65825;52.232;10.566;2022-12-18T07:00:15;102274.25;;;-8.82;83.04
76853;BME280;65825;52.232;10.566;2022-12-18T07:02:40;102279.34;;;-8.70;82.67
76853;BME280;65825;52.232;10.566;2022-12-18T07:05:06;102275.44;;;-8.77;83.12
76853;BME280;65825;52.232;10.566;2022-12-18T07:07:33;102282.34;;;-8.76;82.70
76853;BME280;65825;52.232;10.566;2022-12-18T07:09:59;102287.56;;;-8.74;82.96
76853;BME280;65825;52.232;10.566;2022-12-18T07:12:24;102273.31;;;-8.71;82.35
76853;BME280;65825;52.232;10.566;2022-12-18T07:14:49;102271.91;;;-8.79;82.34
76853;BME280;65825;52.232;10.566;2022-12-18T07:17:14;102272.88;;;-8.77;82.94
76853;BME280;65825;52.232;10.566;2022-12-18T07:19:40;102271.53;;;-8.72;82.93
76853;BME280;65825;52.232;10.566;2022-12-18T07:22:05;102284.13;;;-8.75;82.87
76853;BME280;65825;52.232;10.566;2022-12-18T07:24:32;102285.00;;;-8.74;83.04
76853;BME280;65825;52.232;10.566;2022-12-18T07:26:58;102288.25;;;-8.77;83.14
76853;BME280;65825;52.232;10.566;2022-12-18T07:29:23;102296.22;;;-8.72;82.73
76853;BME280;65825;52.232;10.566;2022-12-18T07:31:49;102295.78;;;-8.67;83.08
76853;BME280;65825;52.232;10.566;2022-12-18T07:34:14;102307.34;;;-8.60;82.63
76853;BME280;65825;52.232;10.566;2022-12-18T07:36:40;102320.44;;;-8.56;82.60
76853;BME280;65825;52.232;10.566;2022-12-18T07:39:06;102324.66;;;-8.45;82.41
76853;BME280;65825;52.232;10.566;2022-12-18T07:41:31;102316.41;;;-8.41;82.37
76853;BME280;65825;52.232;10.566;2022-12-18T07:43:56;102323.38;;;-8.27;81.93
76853;BME280;65825;52.232;10.566;2022-12-18T07:46:22;102324.13;;;-8.28;81.69
76853;BME280;65825;52.232;10.566;2022-12-18T07:48:47;102329.06;;;-8.31;82.16
76853;BME280;65825;52.232;10.566;2022-12-18T07:51:13;102334.19;;;-8.18;81.60
76853;BME280;65825;52.232;10.566;2022-12-18T07:53:38;102335.19;;;-8.16;81.47
76853;BME280;65825;52.232;10.566;2022-12-18T07:56:10;102350.31;;;-8.07;81.06
76853;BME280;65825;52.232;10.566;2022-12-18T07:58:36;102343.94;;;-8.01;80.39
76853;BME280;65825;52.232;10.566;2022-12-18T08:01:10;102353.72;;;-8.07;80.27
76853;BME280;65825;52.232;10.566;2022-12-18T08:03:36;102361.88;;;-8.01;80.44
76853;BME280;65825;52.232;10.566;2022-12-18T08:06:04;102356.25;;;-7.95;80.20
76853;BME280;65825;52.232;10.566;2022-12-18T08:08:30;102363.38;;;-7.91;79.57
76853;BME280;65825;52.232;10.566;2022-12-18T08:10:56;102354.53;;;-7.83;79.91
76853;BME280;65825;52.232;10.566;2022-12-18T08:13:22;102357.88;;;-7.84;79.31
76853;BME280;65825;52.232;10.566;2022-12-18T08:15:59;102353.47;;;-7.74;79.17
76853;BME280;65825;52.232;10.566;2022-12-18T08:18:24;102353.38;;;-7.75;79.64
76853;BME280;65825;52.232;10.566;2022-12-18T08:20:50;102339.84;;;-7.86;79.77
76853;BME280;65825;52.232;10.566;2022-12-18T08:23:16;102332.75;;;-7.77;79.12
76853;BME280;65825;52.232;10.566;2022-12-18T08:25:41;102320.72;;;-7.78;78.99
76853;BME280;65825;52.232;10.566;2022-12-18T08:28:06;102323.50;;;-7.75;80.00
76853;BME280;65825;52.232;10.566;2022-12-18T08:30:32;102312.97;;;-7.66;79.08
76853;BME280;65825;52.232;10.566;2022-12-18T08:32:57;102305.28;;;-7.53;78.76
76853;BME280;65825;52.232;10.566;2022-12-18T08:35:23;102302.75;;;-7.40;78.94
76853;BME280;65825;52.232;10.566;2022-12-18T08:37:48;102302.66;;;-7.29;79.11
76853;BME280;65825;52.232;10.566;2022-12-18T08:40:14;102295.75;;;-7.17;78.66
76853;BME280;65825;52.232;10.566;2022-12-18T08:42:39;102302.84;;;-7.00;77.63
76853;BME280;65825;52.232;10.566;2022-12-18T08:45:23;102305.88;;;-6.92;77.88
76853;BME280;65825;52.232;10.566;2022-12-18T08:47:49;102305.75;;;-6.68;77.44
76853;BME280;65825;52.232;10.566;2022-12-18T08:50:15;102298.19;;;-6.52;77.85
76853;BME280;65825;52.232;10.566;2022-12-18T08:52:40;102295.78;;;-6.36;77.79
76853;BME280;65825;52.232;10.566;2022-12-18T08:55:06;102294.44;;;-6.16;77.69
76853;BME280;65825;52.232;10.566;2022-12-18T08:57:32;102285.41;;;-6.10;76.62
76853;BME280;65825;52.232;10.566;2022-12-18T08:59:57;102285.78;;;-6.04;75.59
76853;BME280;65825;52.232;10.566;2022-12-18T09:02:22;102285.31;;;-5.97;76.07
76853;BME280;65825;52.232;10.566;2022-12-18T09:04:47;102291.53;;;-5.79;75.58
76853;BME280;65825;52.232;10.566;2022-12-18T09:07:13;102284.69;;;-5.64;76.19
76853;BME280;65825;52.232;10.566;2022-12-18T09:09:38;102291.16;;;-5.41;75.31
76853;BME280;65825;52.232;10.566;2022-12-18T09:12:03;102276.00;;;-5.37;74.46
76853;BME280;65825;52.232;10.566;2022-12-18T09:14:29;102275.06;;;-5.23;73.96
76853;BME280;65825;52.232;10.566;2022-12-18T09:16:54;102276.31;;;-5.16;74.42
76853;BME280;65825;52.232;10.566;2022-12-18T09:19:19;102272.53;;;-4.92;73.64
76853;BME280;65825;52.232;10.566;2022-12-18T09:21:45;102268.59;;;-4.86;73.28
76853;BME280;65825;52.232;10.566;2022-12-18T09:24:12;102265.97;;;-4.71;72.45
76853;BME280;65825;52.232;10.566;2022-12-18T09:26:38;102267.22;;;-4.49;72.73
76853;BME280;65825;52.232;10.566;2022-12-18T09:29:04;102261.88;;;-4.36;72.63
76853;BME280;65825;52.232;10.566;2022-12-18T09:31:29;102255.03;;;-4.19;71.24
76853;BME280;65825;52.232;10.566;2022-12-18T09:33:55;102254.84;;;-4.06;71.12
76853;BME280;65825;52.232;10.566;2022-12-18T09:36:21;102250.06;;;-3.83;70.74
76853;BME280;65825;52.232;10.566;2022-12-18T09:38:46;102254.91;;;-3.89;68.59
76853;BME280;65825;52.232;10.566;2022-12-18T09:43:58;102240.47;;;-3.17;68.10
76853;BME280;65825;52.232;10.566;2022-12-18T09:46:35;102237.81;;;-2.64;66.96
76853;BME280;65825;52.232;10.566;2022-12-18T09:49:06;102235.63;;;-1.98;64.79
76853;BME280;65825;52.232;10.566;2022-12-18T09:51:37;102232.91;;;-0.77;61.41
76853;BME280;65825;52.232;10.566;2022-12-18T09:54:10;102223.56;;;4.52;48.59
76853;BME280;65825;52.232;10.566;2022-12-18T09:56:40;102202.28;;;10.35;30.65
76853;BME280;65825;52.232;10.566;2022-12-18T09:59:18;102195.09;;;13.69;27.27
76853;BME280;65825;52.232;10.566;2022-12-18T10:01:44;102192.13;;;12.37;27.11
76853;BME280;65825;52.232;10.566;2022-12-18T10:04:10;102201.84;;;9.25;30.11
76853;BME280;65825;52.232;10.566;2022-12-18T10:06:40;102215.91;;;9.22;31.58
76853;BME280;65825;52.232;10.566;2022-12-18T10:09:23;102218.19;;;12.04;27.66
76853;BME280;65825;52.232;10.566;2022-12-18T10:12:25;102217.22;;;11.37;26.60
76853;BME280;65825;52.232;10.566;2022-12-18T10:15:13;102219.00;;;10.35;29.80
76853;BME280;65825;52.232;10.566;2022-12-18T10:17:51;102209.41;;;11.28;26.29
76853;BME280;65825;52.232;10.566;2022-12-18T10:20:33;102211.91;;;10.40;28.38
76853;BME280;65825;52.232;10.566;2022-12-18T10:28:17;102223.19;;;12.84;24.76
76853;BME280;65825;52.232;10.566;2022-12-18T10:30:43;102230.25;;;13.80;23.81
76853;BME280;65825;52.232;10.566;2022-12-18T10:33:29;102243.94;;;11.13;27.29
76853;BME280;65825;52.232;10.566;2022-12-18T10:35:55;102243.03;;;11.11;28.04
76853;BME280;65825;52.232;10.566;2022-12-18T10:38:28;102229.97;;;9.21;30.77
76853;BME280;65825;52.232;10.566;2022-12-18T10:40:55;102231.97;;;11.60;28.13
76853;BME280;65825;52.232;10.566;2022-12-18T10:43:28;102220.88;;;10.15;29.56
76853;BME280;65825;52.232;10.566;2022-12-18T10:51:28;102224.41;;;10.19;29.53
76853;BME280;65825;52.232;10.566;2022-12-18T10:53:57;102222.22;;;11.67;28.42
76853;BME280;65825;52.232;10.566;2022-12-18T10:56:26;102208.06;;;8.86;30.99
76853;BME280;65825;52.232;10.566;2022-12-18T10:59:03;102214.78;;;7.60;34.52
76853;BME280;65825;52.232;10.566;2022-12-18T11:04:17;102192.22;;;9.16;33.21
76853;BME280;65825;52.232;10.566;2022-12-18T11:07:12;102191.22;;;10.95;30.17
76853;BME280;65825;52.232;10.566;2022-12-18T11:09:39;102179.44;;;12.57;26.16
76853;BME280;65825;52.232;10.566;2022-12-18T11:17:21;102190.34;;;7.83;34.72
76853;BME280;65825;52.232;10.566;2022-12-18T11:19:57;102184.34;;;8.79;34.01
76853;BME280;65825;52.232;10.566;2022-12-18T11:22:31;102180.72;;;7.88;34.93
76853;BME280;65825;52.232;10.566;2022-12-18T11:25:02;102167.22;;;11.17;30.18
76853;BME280;65825;52.232;10.566;2022-12-18T11:27:29;102159.25;;;10.24;31.68
76853;BME280;65825;52.232;10.566;2022-12-18T11:30:09;102155.31;;;7.95;34.73
76853;BME280;65825;52.232;10.566;2022-12-18T11:32:41;102154.38;;;10.80;30.14
76853;BME280;65825;52.232;10.566;2022-12-18T11:35:20;102159.84;;;10.63;29.72
76853;BME280;65825;52.232;10.566;2022-12-18T11:37:54;102151.63;;;9.68;30.72
76853;BME280;65825;52.232;10.566;2022-12-18T11:40:34;102146.66;;;8.65;33.87
76853;BME280;65825;52.232;10.566;2022-12-18T11:43:11;102162.66;;;6.78;37.88
76853;BME280;65825;52.232;10.566;2022-12-18T11:45:50;102159.91;;;5.75;39.41
76853;BME280;65825;52.232;10.566;2022-12-18T11:48:28;102176.69;;;5.20;41.67
76853;BME280;65825;52.232;10.566;2022-12-18T11:50:59;102179.03;;;8.16;36.24
76853;BME280;65825;52.232;10.566;2022-12-18T11:53:26;102182.38;;;10.99;30.32
76853;BME280;65825;52.232;10.566;2022-12-18T12:01:10;102169.91;;;14.28;25.47
76853;BME280;65825;52.232;10.566;2022-12-18T12:09:48;102134.00;;;21.62;16.68
76853;BME280;65825;52.232;10.566;2022-12-18T12:12:51;102139.41;;;21.45;16.62
76853;BME280;65825;52.232;10.566;2022-12-18T12:15:29;102130.75;;;21.23;16.87
76853;BME280;65825;52.232;10.566;2022-12-18T12:20:47;102118.19;;;21.56;15.92
76853;BME280;65825;52.232;10.566;2022-12-18T12:26:26;102111.25;;;22.46;15.83
76853;BME280;65825;52.232;10.566;2022-12-18T12:34:26;102091.78;;;19.74;16.92
76853;BME280;65825;52.232;10.566;2022-12-18T12:37:07;102087.25;;;20.30;17.41
76853;BME280;65825;52.232;10.566;2022-12-18T12:39:41;102078.47;;;20.09;17.07
76853;BME280;65825;52.232;10.566;2022-12-18T12:42:26;102074.13;;;18.51;18.43
76853;BME280;65825;52.232;10.566;2022-12-18T12:45:21;102071.28;;;13.67;24.37
76853;BME280;65825;52.232;10.566;2022-12-18T12:47:48;102074.38;;;12.05;26.42
76853;BME280;65825;52.232;10.566;2022-12-18T12:50:17;102080.75;;;10.47;29.69
76853;BME280;65825;52.232;10.566;2022-12-18T12:52:47;102078.06;;;9.10;31.98
76853;BME280;65825;52.232;10.566;2022-12-18T12:55:17;102071.22;;;8.13;34.34
76853;BME280;65825;52.232;10.566;2022-12-18T12:58:19;102064.66;;;6.77;37.86
76853;BME280;65825;52.232;10.566;2022-12-18T13:01:24;102055.56;;;6.24;39.55
76853;BME280;65825;52.232;10.566;2022-12-18T13:09:01;102050.00;;;3.92;45.43
76853;BME280;65825;52.232;10.566;2022-12-18T13:11:37;102055.75;;;3.25;47.65
76853;BME280;65825;52.232;10.566;2022-12-18T13:14:27;102061.59;;;2.72;49.27
76853;BME280;65825;52.232;10.566;2022-12-18T13:17:17;102046.59;;;2.24;50.65
76853;BME280;65825;52.232;10.566;2022-12-18T13:22:51;102037.22;;;1.30;53.82
76853;BME280;65825;52.232;10.566;2022-12-18T13:25:36;102033.78;;;1.31;53.74
76853;BME280;65825;52.232;10.566;2022-12-18T13:33:37;102055.34;;;0.40;56.79
76853;BME280;65825;52.232;10.566;2022-12-18T13:38:47;102061.84;;;0.26;56.58
76853;BME280;65825;52.232;10.566;2022-12-18T13:43:46;102055.38;;;-0.13;57.86
76853;BME280;65825;52.232;10.566;2022-12-18T13:46:43;102054.66;;;-0.09;58.68
76853;BME280;65825;52.232;10.566;2022-12-18T13:51:41;102057.25;;;-0.34;58.79
76853;BME280;65825;52.232;10.566;2022-12-18T13:56:51;102056.00;;;-0.93;60.61
76853;BME280;65825;52.232;10.566;2022-12-18T14:01:53;102055.06;;;-1.41;62.80
76853;BME280;65825;52.232;10.566;2022-12-18T14:04:19;102056.78;;;-1.41;62.16
76853;BME280;65825;52.232;10.566;2022-12-18T14:06:46;102057.97;;;-1.55;62.71
76853;BME280;65825;52.232;10.566;2022-12-18T14:09:18;102051.47;;;-1.44;62.38
76853;BME280;65825;52.232;10.566;2022-12-18T14:11:49;102047.47;;;-1.58;62.86
76853;BME280;65825;52.232;10.566;2022-12-18T14:14:16;102059.41;;;-1.84;63.27
76853;BME280;65825;52.232;10.566;2022-12-18T14:16:41;102056.03;;;-2.03;64.57
76853;BME280;65825;52.232;10.566;2022-12-18T14:19:14;102058.25;;;-2.12;64.47
76853;BME280;65825;52.232;10.566;2022-12-18T14:21:45;102053.81;;;-2.15;64.76
76853;BME280;65825;52.232;10.566;2022-12-18T14:24:20;102049.41;;;-2.17;64.73
76853;BME280;65825;52.232;10.566;2022-12-18T14:26:48;102047.78;;;-2.36;65.29
76853;BME280;65825;52.232;10.566;2022-12-18T14:34:31;102051.41;;;-2.51;65.92